sensor_id;sensor_type;location;lat;lon;timestamp;temperature;humidity
48376;DHT22;34178;50.904;11.560;2022-09-30T00:01:21;6.10;99.90
48376;DHT22;34178;50.904;11.560;2022-09-30T00:03:47;6.20;99.90
48376;DHT22;34178;50.904;11.560;2022-09-30T00:06:14;6.20;99.90
48376;DHT22;34178;50.904;11.560;2022-09-30T00:08:40;6.30;99.90
48376;DHT22;34178;50.904;11.560;2022-09-30T00:11:12;6.30;99.90
48376;DHT22;34178;50.904;11.560;2022-09-30T00:13:39;6.30;99.90
48376;DHT22;34178;50.904;11.560;2022-09-30T00:16:08;6.40;99.90
48376;DHT22;34178;50.904;11.560;2022-09-30T00:18:35;6.40;99.90
48376;DHT22;34178;50.904;11.560;2022-09-30T00:21:01;6.40;99.90
48376;DHT22;34178;50.904;11.560;2022-09-30T00:23:27;6.40;99.90
48376;DHT22;34178;50.904;11.560;2022-09-30T00:26:01;6.40;99.90
48376;DHT22;34178;50.904;11.560;2022-09-30T00:28:29;6.40;99.90
48376;DHT22;34178;50.904;11.560;2022-09-30T00:31:03;6.40;99.90
48376;DHT22;34178;50.904;11.560;2022-09-30T00:33:29;6.40;99.90
48376;DHT22;34178;50.904;11.560;2022-09-30T00:35:55;6.30;99.90
48376;DHT22;34178;50.904;11.560;2022-09-30T00:38:21;6.30;99.90
48376;DHT22;34178;50.904;11.560;2022-09-30T00:40:47;6.30;99.90
48376;DHT22;34178;50.904;11.560;2022-09-30T00:43:16;6.20;99.90
48376;DHT22;34178;50.904;11.560;2022-09-30T00:45:55;6.20;99.90
48376;DHT22;34178;50.904;11.560;2022-09-30T00:48:28;6.20;99.90
48376;DHT22;34178;50.904;11.560;2022-09-30T00:50:55;6.10;99.90
48376;DHT22;34178;50.904;11.560;2022-09-30T00:53:22;6.10;99.90
48376;DHT22;34178;50.904;11.560;2022-09-30T00:56:10;6.00;99.90
48376;DHT22;34178;50.904;11.560;2022-09-30T00:58:53;6.00;99.90
48376;DHT22;34178;50.904;11.560;2022-09-30T01:01:21;5.90;99.90
48376;DHT22;34178;50.904;11.560;2022-09-30T01:03:55;5.90;99.90
48376;DHT22;34178;50.904;11.560;2022-09-30T01:06:22;5.80;99.90
48376;DHT22;34178;50.904;11.560;2022-09-30T01:08:48;5.80;99.90
48376;DHT22;34178;50.904;11.560;2022-09-30T01:11:14;5.80;99.90
48376;DHT22;34178;50.904;11.560;2022-09-30T01:13:41;5.70;99.90
48376;DHT22;34178;50.904;11.560;2022-09-30T01:22:07;5.70;99.90
48376;DHT22;34178;50.904;11.560;2022-09-30T01:38:46;5.40;99.90
48376;DHT22;34178;50.904;11.560;2022-09-30T01:47:19;5.30;99.90
48376;DHT22;34178;50.904;11.560;2022-09-30T01:49:50;5.30;99.90
48376;DHT22;34178;50.904;11.560;2022-09-30T01:52:20;5.30;99.90
48376;DHT22;34178;50.904;11.560;2022-09-30T01:57:42;5.30;99.90
48376;DHT22;34178;50.904;11.560;2022-09-30T02:00:10;5.30;99.90
48376;DHT22;34178;50.904;11.560;2022-09-30T02:03:00;5.30;99.90
48376;DHT22;34178;50.904;11.560;2022-09-30T02:05:42;5.20;99.90
48376;DHT22;34178;50.904;11.560;2022-09-30T02:08:18;5.20;99.90
48376;DHT22;34178;50.904;11.560;2022-09-30T02:10:51;5.10;99.90
48376;DHT22;34178;50.904;11.560;2022-09-30T02:13:55;5.10;99.90
48376;DHT22;34178;50.904;11.560;2022-09-30T02:16:29;5.10;99.90
48376;DHT22;34178;50.904;11.560;2022-09-30T02:19:09;5.10;99.90
48376;DHT22;34178;50.904;11.560;2022-09-30T02:21:39;5.10;99.90
48376;DHT22;34178;50.904;11.560;2022-09-30T02:24:09;5.10;99.90
48376;DHT22;34178;50.904;11.560;2022-09-30T02:26:39;5.00;99.90
48376;DHT22;34178;50.904;11.560;2022-09-30T02:29:12;4.90;99.90
48376;DHT22;34178;50.904;11.560;2022-09-30T02:31:42;4.90;99.90
48376;DHT22;34178;50.904;11.560;2022-09-30T02:34:14;4.80;99.90
48376;DHT22;34178;50.904;11.560;2022-09-30T02:42:10;4.80;99.90
48376;DHT22;34178;50.904;11.560;2022-09-30T02:44:38;4.80;99.90
48376;DHT22;34178;50.904;11.560;2022-09-30T02:49:35;4.70;99.90
48376;DHT22;34178;50.904;11.560;2022-09-30T02:52:08;4.70;99.90
48376;DHT22;34178;50.904;11.560;2022-09-30T03:00:17;4.60;99.90
48376;DHT22;34178;50.904;11.560;2022-09-30T03:02:43;4.60;99.90
48376;DHT22;34178;50.904;11.560;2022-09-30T03:05:09;4.60;99.90
48376;DHT22;34178;50.904;11.560;2022-09-30T03:07:36;4.50;99.90
48376;DHT22;34178;50.904;11.560;2022-09-30T03:10:14;4.50;99.90
48376;DHT22;34178;50.904;11.560;2022-09-30T03:34:37;4.30;99.90
48376;DHT22;34178;50.904;11.560;2022-09-30T03:40:07;4.20;99.90
48376;DHT22;34178;50.904;11.560;2022-09-30T03:43:19;4.20;99.90
48376;DHT22;34178;50.904;11.560;2022-09-30T03:45:55;4.20;99.90
48376;DHT22;34178;50.904;11.560;2022-09-30T03:48:24;4.30;99.90
48376;DHT22;34178;50.904;11.560;2022-09-30T03:50:52;4.40;99.90
48376;DHT22;34178;50.904;11.560;2022-09-30T03:53:18;4.50;99.90
48376;DHT22;34178;50.904;11.560;2022-09-30T03:55:49;4.50;99.90
48376;DHT22;34178;50.904;11.560;2022-09-30T03:58:17;4.50;99.90
48376;DHT22;34178;50.904;11.560;2022-09-30T04:00:49;4.50;99.90
48376;DHT22;34178;50.904;11.560;2022-09-30T04:03:15;4.50;99.90
48376;DHT22;34178;50.904;11.560;2022-09-30T04:05:42;4.40;99.90
48376;DHT22;34178;50.904;11.560;2022-09-30T04:08:08;4.30;99.90
48376;DHT22;34178;50.904;11.560;2022-09-30T04:10:33;4.20;99.90
48376;DHT22;34178;50.904;11.560;2022-09-30T04:12:59;4.20;99.90
48376;DHT22;34178;50.904;11.560;2022-09-30T04:15:25;4.20;99.90
48376;DHT22;34178;50.904;11.560;2022-09-30T04:17:52;4.30;99.90
48376;DHT22;34178;50.904;11.560;2022-09-30T04:20:17;4.30;99.90
48376;DHT22;34178;50.904;11.560;2022-09-30T04:22:43;4.30;99.90
48376;DHT22;34178;50.904;11.560;2022-09-30T04:25:08;4.20;99.90
48376;DHT22;34178;50.904;11.560;2022-09-30T04:27:34;4.10;99.90
48376;DHT22;34178;50.904;11.560;2022-09-30T04:30:00;4.10;99.90
48376;DHT22;34178;50.904;11.560;2022-09-30T04:32:25;4.10;99.90
48376;DHT22;34178;50.904;11.560;2022-09-30T04:34:52;4.00;99.90
48376;DHT22;34178;50.904;11.560;2022-09-30T04:37:19;4.00;99.90
48376;DHT22;34178;50.904;11.560;2022-09-30T04:39:44;3.90;99.90
48376;DHT22;34178;50.904;11.560;2022-09-30T04:42:10;3.90;99.90
48376;DHT22;34178;50.904;11.560;2022-09-30T04:44:36;3.90;99.90
48376;DHT22;34178;50.904;11.560;2022-09-30T04:47:02;3.80;99.90
48376;DHT22;34178;50.904;11.560;2022-09-30T04:49:27;3.90;99.90
48376;DHT22;34178;50.904;11.560;2022-09-30T04:51:53;4.00;99.90
48376;DHT22;34178;50.904;11.560;2022-09-30T04:54:19;4.10;99.90
48376;DHT22;34178;50.904;11.560;2022-09-30T04:56:45;4.10;99.90
48376;DHT22;34178;50.904;11.560;2022-09-30T04:59:10;4.20;99.90
48376;DHT22;34178;50.904;11.560;2022-09-30T05:01:36;4.20;99.90
48376;DHT22;34178;50.904;11.560;2022-09-30T05:04:03;4.30;99.90
48376;DHT22;34178;50.904;11.560;2022-09-30T05:06:29;4.30;99.90
48376;DHT22;34178;50.904;11.560;2022-09-30T05:08:54;4.20;99.90
48376;DHT22;34178;50.904;11.560;2022-09-30T05:11:21;4.20;99.90
48376;DHT22;34178;50.904;11.560;2022-09-30T05:13:47;4.30;99.90
48376;DHT22;34178;50.904;11.560;2022-09-30T05:16:14;4.30;99.90
48376;DHT22;34178;50.904;11.560;2022-09-30T05:18:40;4.40;99.90
48376;DHT22;34178;50.904;11.560;2022-09-30T05:21:10;4.40;99.90
48376;DHT22;34178;50.904;11.560;2022-09-30T05:23:36;4.30;99.90
48376;DHT22;34178;50.904;11.560;2022-09-30T05:26:03;4.30;99.90
48376;DHT22;34178;50.904;11.560;2022-09-30T05:28:29;4.40;99.90
48376;DHT22;34178;50.904;11.560;2022-09-30T05:31:01;4.30;99.90
48376;DHT22;34178;50.904;11.560;2022-09-30T05:33:28;4.40;99.90
48376;DHT22;34178;50.904;11.560;2022-09-30T05:35:54;4.30;99.90
48376;DHT22;34178;50.904;11.560;2022-09-30T05:38:20;4.40;99.90
48376;DHT22;34178;50.904;11.560;2022-09-30T05:40:46;4.40;99.90
48376;DHT22;34178;50.904;11.560;2022-09-30T05:43:11;4.40;99.90
48376;DHT22;34178;50.904;11.560;2022-09-30T05:45:37;4.40;99.90
48376;DHT22;34178;50.904;11.560;2022-09-30T05:48:03;4.30;99.90
48376;DHT22;34178;50.904;11.560;2022-09-30T05:50:29;4.40;99.90
48376;DHT22;34178;50.904;11.560;2022-09-30T05:52:55;4.50;99.90
48376;DHT22;34178;50.904;11.560;2022-09-30T05:55:22;4.70;99.90
48376;DHT22;34178;50.904;11.560;2022-09-30T05:57:49;4.70;99.90
48376;DHT22;34178;50.904;11.560;2022-09-30T06:00:16;4.80;99.90
48376;DHT22;34178;50.904;11.560;2022-09-30T06:02:42;4.80;99.90
48376;DHT22;34178;50.904;11.560;2022-09-30T06:05:08;4.80;99.90
48376;DHT22;34178;50.904;11.560;2022-09-30T06:07:35;4.80;99.90
48376;DHT22;34178;50.904;11.560;2022-09-30T06:10:03;4.80;99.90
48376;DHT22;34178;50.904;11.560;2022-09-30T06:12:29;4.80;99.90
48376;DHT22;34178;50.904;11.560;2022-09-30T06:14:54;4.90;99.90
48376;DHT22;34178;50.904;11.560;2022-09-30T06:17:21;4.90;99.90
48376;DHT22;34178;50.904;11.560;2022-09-30T06:19:47;5.00;99.90
48376;DHT22;34178;50.904;11.560;2022-09-30T06:22:15;5.20;99.90
48376;DHT22;34178;50.904;11.560;2022-09-30T06:24:41;5.30;99.90
48376;DHT22;34178;50.904;11.560;2022-09-30T06:27:07;5.30;99.90
48376;DHT22;34178;50.904;11.560;2022-09-30T06:29:33;5.20;99.90
48376;DHT22;34178;50.904;11.560;2022-09-30T06:31:58;5.30;99.90
48376;DHT22;34178;50.904;11.560;2022-09-30T06:34:24;5.40;99.90
48376;DHT22;34178;50.904;11.560;2022-09-30T06:36:50;5.50;99.90
48376;DHT22;34178;50.904;11.560;2022-09-30T06:39:15;5.70;99.90
48376;DHT22;34178;50.904;11.560;2022-09-30T06:41:41;5.70;99.90
48376;DHT22;34178;50.904;11.560;2022-09-30T06:44:09;5.90;99.90
48376;DHT22;34178;50.904;11.560;2022-09-30T06:46:35;6.00;99.90
48376;DHT22;34178;50.904;11.560;2022-09-30T06:49:01;6.10;99.90
48376;DHT22;34178;50.904;11.560;2022-09-30T06:51:29;6.20;99.90
48376;DHT22;34178;50.904;11.560;2022-09-30T06:53:59;6.20;99.90
48376;DHT22;34178;50.904;11.560;2022-09-30T06:56:25;6.20;99.90
48376;DHT22;34178;50.904;11.560;2022-09-30T06:58:54;6.10;99.90
48376;DHT22;34178;50.904;11.560;2022-09-30T07:01:23;6.10;99.90
48376;DHT22;34178;50.904;11.560;2022-09-30T07:03:49;6.10;99.90
48376;DHT22;34178;50.904;11.560;2022-09-30T07:06:20;6.20;99.90
48376;DHT22;34178;50.904;11.560;2022-09-30T07:08:45;6.30;99.90
48376;DHT22;34178;50.904;11.560;2022-09-30T07:11:12;6.40;99.90
48376;DHT22;34178;50.904;11.560;2022-09-30T07:13:45;6.50;99.90
48376;DHT22;34178;50.904;11.560;2022-09-30T07:16:16;6.70;99.90
48376;DHT22;34178;50.904;11.560;2022-09-30T07:18:42;6.90;99.90
48376;DHT22;34178;50.904;11.560;2022-09-30T07:21:10;7.00;99.90
48376;DHT22;34178;50.904;11.560;2022-09-30T07:23:38;6.90;99.90
48376;DHT22;34178;50.904;11.560;2022-09-30T07:26:10;6.90;99.90
48376;DHT22;34178;50.904;11.560;2022-09-30T07:28:36;6.90;99.90
48376;DHT22;34178;50.904;11.560;2022-09-30T07:31:09;7.10;99.90
48376;DHT22;34178;50.904;11.560;2022-09-30T07:33:38;7.10;99.90
48376;DHT22;34178;50.904;11.560;2022-09-30T07:36:04;7.20;99.90
48376;DHT22;34178;50.904;11.560;2022-09-30T07:38:34;7.30;99.90
48376;DHT22;34178;50.904;11.560;2022-09-30T07:41:15;7.50;99.90
48376;DHT22;34178;50.904;11.560;2022-09-30T07:43:43;7.60;99.90
48376;DHT22;34178;50.904;11.560;2022-09-30T07:46:15;7.70;99.90
48376;DHT22;34178;50.904;11.560;2022-09-30T07:48:43;7.80;99.90
48376;DHT22;34178;50.904;11.560;2022-09-30T07:51:25;7.60;99.90
48376;DHT22;34178;50.904;11.560;2022-09-30T07:53:54;7.60;99.90
48376;DHT22;34178;50.904;11.560;2022-09-30T07:56:21;7.70;99.90
48376;DHT22;34178;50.904;11.560;2022-09-30T07:58:47;7.80;99.90
48376;DHT22;34178;50.904;11.560;2022-09-30T08:01:14;8.00;99.90
48376;DHT22;34178;50.904;11.560;2022-09-30T08:03:42;8.20;99.90
48376;DHT22;34178;50.904;11.560;2022-09-30T08:06:16;8.30;99.90
48376;DHT22;34178;50.904;11.560;2022-09-30T08:08:43;8.30;99.90
48376;DHT22;34178;50.904;11.560;2022-09-30T08:11:10;8.50;99.90
48376;DHT22;34178;50.904;11.560;2022-09-30T08:13:36;8.60;99.90
48376;DHT22;34178;50.904;11.560;2022-09-30T08:16:03;8.60;99.90
48376;DHT22;34178;50.904;11.560;2022-09-30T08:18:28;8.60;99.90
48376;DHT22;34178;50.904;11.560;2022-09-30T08:20:54;8.60;99.90
48376;DHT22;34178;50.904;11.560;2022-09-30T08:23:20;8.60;99.90
48376;DHT22;34178;50.904;11.560;2022-09-30T08:25:46;8.50;99.90
48376;DHT22;34178;50.904;11.560;2022-09-30T08:28:13;8.00;99.90
48376;DHT22;34178;50.904;11.560;2022-09-30T08:30:39;7.80;99.90
48376;DHT22;34178;50.904;11.560;2022-09-30T08:33:05;8.00;99.90
48376;DHT22;34178;50.904;11.560;2022-09-30T08:35:30;8.10;99.90
48376;DHT22;34178;50.904;11.560;2022-09-30T08:37:56;8.30;99.90
48376;DHT22;34178;50.904;11.560;2022-09-30T08:40:26;8.40;99.90
48376;DHT22;34178;50.904;11.560;2022-09-30T08:53:42;9.00;99.90
48376;DHT22;34178;50.904;11.560;2022-09-30T08:56:21;9.10;99.90
48376;DHT22;34178;50.904;11.560;2022-09-30T08:58:50;9.20;99.90
48376;DHT22;34178;50.904;11.560;2022-09-30T09:01:31;9.30;99.90
48376;DHT22;34178;50.904;11.560;2022-09-30T09:03:58;9.40;99.90
48376;DHT22;34178;50.904;11.560;2022-09-30T09:09:07;9.60;99.90
48376;DHT22;34178;50.904;11.560;2022-09-30T09:22:37;10.10;99.90
48376;DHT22;34178;50.904;11.560;2022-09-30T09:25:03;10.30;99.90
48376;DHT22;34178;50.904;11.560;2022-09-30T09:27:50;10.30;99.90
48376;DHT22;34178;50.904;11.560;2022-09-30T09:30:20;10.40;99.90
48376;DHT22;34178;50.904;11.560;2022-09-30T09:32:53;10.40;99.90
48376;DHT22;34178;50.904;11.560;2022-09-30T09:38:52;10.70;99.90
48376;DHT22;34178;50.904;11.560;2022-09-30T09:47:12;11.20;99.90
48376;DHT22;34178;50.904;11.560;2022-09-30T09:49:45;11.40;99.90
48376;DHT22;34178;50.904;11.560;2022-09-30T09:57:10;11.70;99.90
48376;DHT22;34178;50.904;11.560;2022-09-30T09:59:52;11.70;99.90
48376;DHT22;34178;50.904;11.560;2022-09-30T10:04:49;12.00;99.90
48376;DHT22;34178;50.904;11.560;2022-09-30T10:07:24;12.00;99.90
48376;DHT22;34178;50.904;11.560;2022-09-30T10:10:17;12.20;99.90
48376;DHT22;34178;50.904;11.560;2022-09-30T10:12:44;12.30;99.90
48376;DHT22;34178;50.904;11.560;2022-09-30T10:15:23;12.40;99.90
48376;DHT22;34178;50.904;11.560;2022-09-30T10:17:57;12.60;99.90
48376;DHT22;34178;50.904;11.560;2022-09-30T10:20:31;12.70;99.90
48376;DHT22;34178;50.904;11.560;2022-09-30T10:23:09;12.80;99.90
48376;DHT22;34178;50.904;11.560;2022-09-30T10:25:35;12.90;99.90
48376;DHT22;34178;50.904;11.560;2022-09-30T10:28:17;12.90;99.90
48376;DHT22;34178;50.904;11.560;2022-09-30T10:31:04;13.00;99.90
48376;DHT22;34178;50.904;11.560;2022-09-30T10:36:00;13.20;99.90
48376;DHT22;34178;50.904;11.560;2022-09-30T10:38:28;13.20;99.90
48376;DHT22;34178;50.904;11.560;2022-09-30T10:40:56;13.30;99.90
48376;DHT22;34178;50.904;11.560;2022-09-30T10:43:36;13.40;99.90
48376;DHT22;34178;50.904;11.560;2022-09-30T10:46:04;13.50;99.90
48376;DHT22;34178;50.904;11.560;2022-09-30T10:48:35;13.70;99.90
48376;DHT22;34178;50.904;11.560;2022-09-30T10:51:02;13.90;99.90
48376;DHT22;34178;50.904;11.560;2022-09-30T10:53:33;14.10;99.90
48376;DHT22;34178;50.904;11.560;2022-09-30T10:56:00;14.40;99.90
48376;DHT22;34178;50.904;11.560;2022-09-30T10:58:46;14.50;99.90
48376;DHT22;34178;50.904;11.560;2022-09-30T11:01:33;14.60;99.90
48376;DHT22;34178;50.904;11.560;2022-09-30T11:04:10;14.80;99.90
48376;DHT22;34178;50.904;11.560;2022-09-30T11:06:39;14.90;99.90
48376;DHT22;34178;50.904;11.560;2022-09-30T11:09:08;14.80;99.90
48376;DHT22;34178;50.904;11.560;2022-09-30T11:11:42;14.70;99.90
48376;DHT22;34178;50.904;11.560;2022-09-30T11:17:27;14.50;99.70
48376;DHT22;34178;50.904;11.560;2022-09-30T11:20:13;14.50;99.70
48376;DHT22;34178;50.904;11.560;2022-09-30T11:23:11;14.40;99.90
48376;DHT22;34178;50.904;11.560;2022-09-30T11:28:40;14.80;99.90
48376;DHT22;34178;50.904;11.560;2022-09-30T11:42:46;15.40;98.20
48376;DHT22;34178;50.904;11.560;2022-09-30T11:45:34;15.50;98.80
48376;DHT22;34178;50.904;11.560;2022-09-30T11:59:29;15.50;98.00
48376;DHT22;34178;50.904;11.560;2022-09-30T12:02:01;15.70;97.60
48376;DHT22;34178;50.904;11.560;2022-09-30T12:04:33;15.70;97.30
48376;DHT22;34178;50.904;11.560;2022-09-30T12:07:19;15.90;98.50
48376;DHT22;34178;50.904;11.560;2022-09-30T12:09:50;16.40;97.30
48376;DHT22;34178;50.904;11.560;2022-09-30T12:12:18;16.90;98.90
48376;DHT22;34178;50.904;11.560;2022-09-30T12:15:02;17.20;96.20
48376;DHT22;34178;50.904;11.560;2022-09-30T12:20:06;18.20;96.70
48376;DHT22;34178;50.904;11.560;2022-09-30T12:22:39;18.90;94.00
48376;DHT22;34178;50.904;11.560;2022-09-30T12:28:13;19.60;91.90
48376;DHT22;34178;50.904;11.560;2022-09-30T12:31:22;19.30;91.20
48376;DHT22;34178;50.904;11.560;2022-09-30T12:36:34;17.80;90.60
48376;DHT22;34178;50.904;11.560;2022-09-30T12:47:46;17.40;95.20
48376;DHT22;34178;50.904;11.560;2022-09-30T12:50:19;17.50;95.20
48376;DHT22;34178;50.904;11.560;2022-09-30T12:52:46;17.90;95.70
48376;DHT22;34178;50.904;11.560;2022-09-30T12:55:39;18.00;95.60
48376;DHT22;34178;50.904;11.560;2022-09-30T12:58:12;17.90;96.60
48376;DHT22;34178;50.904;11.560;2022-09-30T13:01:02;17.80;96.70
48376;DHT22;34178;50.904;11.560;2022-09-30T13:03:52;17.70;96.50
48376;DHT22;34178;50.904;11.560;2022-09-30T13:09:19;19.20;93.80
48376;DHT22;34178;50.904;11.560;2022-09-30T13:12:14;19.70;92.60
48376;DHT22;34178;50.904;11.560;2022-09-30T13:14:41;19.80;90.90
48376;DHT22;34178;50.904;11.560;2022-09-30T13:19:43;19.20;90.60
48376;DHT22;34178;50.904;11.560;2022-09-30T13:32:41;17.60;93.40
48376;DHT22;34178;50.904;11.560;2022-09-30T13:45:56;16.90;97.40
48376;DHT22;34178;50.904;11.560;2022-09-30T13:48:32;16.90;97.40
48376;DHT22;34178;50.904;11.560;2022-09-30T13:50:59;16.90;97.10
48376;DHT22;34178;50.904;11.560;2022-09-30T13:53:35;16.90;97.40
48376;DHT22;34178;50.904;11.560;2022-09-30T13:56:11;16.70;98.00
48376;DHT22;34178;50.904;11.560;2022-09-30T14:07:57;16.20;98.70
48376;DHT22;34178;50.904;11.560;2022-09-30T14:10:33;16.10;98.70
48376;DHT22;34178;50.904;11.560;2022-09-30T14:16:10;15.90;99.50
48376;DHT22;34178;50.904;11.560;2022-09-30T14:21:44;16.40;99.90
48376;DHT22;34178;50.904;11.560;2022-09-30T14:24:21;17.80;99.30
48376;DHT22;34178;50.904;11.560;2022-09-30T14:32:14;18.50;96.80
48376;DHT22;34178;50.904;11.560;2022-09-30T14:34:44;19.30;96.50
48376;DHT22;34178;50.904;11.560;2022-09-30T14:37:19;20.30;94.40
48376;DHT22;34178;50.904;11.560;2022-09-30T14:39:46;20.90;92.00
48376;DHT22;34178;50.904;11.560;2022-09-30T14:42:36;21.10;91.20
48376;DHT22;34178;50.904;11.560;2022-09-30T14:45:07;21.00;93.00
48376;DHT22;34178;50.904;11.560;2022-09-30T14:47:38;20.50;93.80
48376;DHT22;34178;50.904;11.560;2022-09-30T14:50:10;20.40;94.10
48376;DHT22;34178;50.904;11.560;2022-09-30T14:52:42;21.00;93.90
48376;DHT22;34178;50.904;11.560;2022-09-30T14:55:19;21.50;93.20
48376;DHT22;34178;50.904;11.560;2022-09-30T14:57:47;21.30;93.20
48376;DHT22;34178;50.904;11.560;2022-09-30T15:00:26;20.50;93.30
48376;DHT22;34178;50.904;11.560;2022-09-30T15:02:52;19.90;93.90
48376;DHT22;34178;50.904;11.560;2022-09-30T15:05:18;19.20;94.10
48376;DHT22;34178;50.904;11.560;2022-09-30T15:07:44;18.70;95.20
48376;DHT22;34178;50.904;11.560;2022-09-30T15:10:19;18.40;95.30
48376;DHT22;34178;50.904;11.560;2022-09-30T15:12:47;18.00;95.00
48376;DHT22;34178;50.904;11.560;2022-09-30T15:17:49;18.20;95.80
48376;DHT22;34178;50.904;11.560;2022-09-30T15:22:50;18.50;95.60
48376;DHT22;34178;50.904;11.560;2022-09-30T15:25:18;18.40;95.40
48376;DHT22;34178;50.904;11.560;2022-09-30T15:27:45;18.40;95.60
48376;DHT22;34178;50.904;11.560;2022-09-30T15:32:39;17.90;96.00
48376;DHT22;34178;50.904;11.560;2022-09-30T15:35:11;17.40;96.90
48376;DHT22;34178;50.904;11.560;2022-09-30T15:37:39;17.20;97.30
48376;DHT22;34178;50.904;11.560;2022-09-30T15:40:13;16.90;97.60
48376;DHT22;34178;50.904;11.560;2022-09-30T15:43:01;16.60;97.10
48376;DHT22;34178;50.904;11.560;2022-09-30T15:45:37;16.20;97.40
48376;DHT22;34178;50.904;11.560;2022-09-30T15:50:45;15.80;98.50
48376;DHT22;34178;50.904;11.560;2022-09-30T15:55:44;15.40;99.20
48376;DHT22;34178;50.904;11.560;2022-09-30T16:00:52;14.90;99.90
48376;DHT22;34178;50.904;11.560;2022-09-30T16:05:51;14.50;99.90
48376;DHT22;34178;50.904;11.560;2022-09-30T16:08:24;14.30;99.90
48376;DHT22;34178;50.904;11.560;2022-09-30T16:10:53;14.10;99.90
48376;DHT22;34178;50.904;11.560;2022-09-30T16:13:26;13.80;99.90
48376;DHT22;34178;50.904;11.560;2022-09-30T16:15:55;13.60;99.90
48376;DHT22;34178;50.904;11.560;2022-09-30T16:18:27;13.50;99.90
48376;DHT22;34178;50.904;11.560;2022-09-30T16:20:58;13.40;99.90
48376;DHT22;34178;50.904;11.560;2022-09-30T16:23:36;13.20;99.90
48376;DHT22;34178;50.904;11.560;2022-09-30T16:26:15;13.10;99.90
48376;DHT22;34178;50.904;11.560;2022-09-30T16:28:42;13.00;99.90
48376;DHT22;34178;50.904;11.560;2022-09-30T16:31:08;12.80;99.90
48376;DHT22;34178;50.904;11.560;2022-09-30T16:33:40;12.70;99.90
48376;DHT22;34178;50.904;11.560;2022-09-30T16:36:07;12.50;99.90
48376;DHT22;34178;50.904;11.560;2022-09-30T16:38:33;12.40;99.90
48376;DHT22;34178;50.904;11.560;2022-09-30T16:41:00;12.30;99.90
48376;DHT22;34178;50.904;11.560;2022-09-30T16:43:28;12.30;99.90
48376;DHT22;34178;50.904;11.560;2022-09-30T16:45:55;12.10;99.90
48376;DHT22;34178;50.904;11.560;2022-09-30T16:48:21;12.00;99.90
48376;DHT22;34178;50.904;11.560;2022-09-30T16:51:06;11.80;99.90
48376;DHT22;34178;50.904;11.560;2022-09-30T16:53:33;11.80;99.90
48376;DHT22;34178;50.904;11.560;2022-09-30T16:55:59;11.70;99.90
48376;DHT22;34178;50.904;11.560;2022-09-30T16:58:24;11.60;99.90
48376;DHT22;34178;50.904;11.560;2022-09-30T17:00:51;11.40;99.90
48376;DHT22;34178;50.904;11.560;2022-09-30T17:03:17;11.30;99.90
48376;DHT22;34178;50.904;11.560;2022-09-30T17:05:44;11.20;99.90
48376;DHT22;34178;50.904;11.560;2022-09-30T17:08:13;11.10;99.90
48376;DHT22;34178;50.904;11.560;2022-09-30T17:10:41;11.10;99.90
48376;DHT22;34178;50.904;11.560;2022-09-30T17:13:07;10.90;99.90
48376;DHT22;34178;50.904;11.560;2022-09-30T17:15:33;10.80;99.90
48376;DHT22;34178;50.904;11.560;2022-09-30T17:18:05;10.80;99.90
48376;DHT22;34178;50.904;11.560;2022-09-30T17:20:32;10.70;99.90
48376;DHT22;34178;50.904;11.560;2022-09-30T17:22:58;10.70;99.90
48376;DHT22;34178;50.904;11.560;2022-09-30T17:25:24;10.60;99.90
48376;DHT22;34178;50.904;11.560;2022-09-30T17:27:49;10.50;99.90
48376;DHT22;34178;50.904;11.560;2022-09-30T17:30:16;10.40;99.90
48376;DHT22;34178;50.904;11.560;2022-09-30T17:32:42;10.30;99.90
48376;DHT22;34178;50.904;11.560;2022-09-30T17:35:08;10.30;99.90
48376;DHT22;34178;50.904;11.560;2022-09-30T17:37:35;10.20;99.90
48376;DHT22;34178;50.904;11.560;2022-09-30T17:40:05;10.10;99.90
48376;DHT22;34178;50.904;11.560;2022-09-30T17:42:51;10.00;99.90
48376;DHT22;34178;50.904;11.560;2022-09-30T17:45:32;10.00;99.90
48376;DHT22;34178;50.904;11.560;2022-09-30T17:47:58;9.90;99.90
48376;DHT22;34178;50.904;11.560;2022-09-30T17:50:24;9.80;99.90
48376;DHT22;34178;50.904;11.560;2022-09-30T17:52:49;9.70;99.90
48376;DHT22;34178;50.904;11.560;2022-09-30T17:55:15;9.70;99.90
48376;DHT22;34178;50.904;11.560;2022-09-30T17:57:41;9.60;99.90
48376;DHT22;34178;50.904;11.560;2022-09-30T18:00:07;9.60;99.90
48376;DHT22;34178;50.904;11.560;2022-09-30T18:02:33;9.60;99.90
48376;DHT22;34178;50.904;11.560;2022-09-30T18:04:58;9.50;99.90
48376;DHT22;34178;50.904;11.560;2022-09-30T18:07:24;9.40;99.90
48376;DHT22;34178;50.904;11.560;2022-09-30T18:09:52;9.40;99.90
48376;DHT22;34178;50.904;11.560;2022-09-30T18:12:17;9.20;99.90
48376;DHT22;34178;50.904;11.560;2022-09-30T18:14:43;9.10;99.90
48376;DHT22;34178;50.904;11.560;2022-09-30T18:17:08;9.00;99.90
48376;DHT22;34178;50.904;11.560;2022-09-30T18:19:34;9.00;99.90
48376;DHT22;34178;50.904;11.560;2022-09-30T18:22:01;8.90;99.90
48376;DHT22;34178;50.904;11.560;2022-09-30T18:24:26;8.80;99.90
48376;DHT22;34178;50.904;11.560;2022-09-30T18:27:11;8.80;99.90
48376;DHT22;34178;50.904;11.560;2022-09-30T18:29:37;8.80;99.90
48376;DHT22;34178;50.904;11.560;2022-09-30T18:32:04;8.70;99.90
48376;DHT22;34178;50.904;11.560;2022-09-30T18:34:30;8.60;99.90
48376;DHT22;34178;50.904;11.560;2022-09-30T18:36:55;8.50;99.90
48376;DHT22;34178;50.904;11.560;2022-09-30T18:39:22;8.50;99.90
48376;DHT22;34178;50.904;11.560;2022-09-30T18:41:48;8.40;99.90
48376;DHT22;34178;50.904;11.560;2022-09-30T18:44:14;8.30;99.90
48376;DHT22;34178;50.904;11.560;2022-09-30T18:46:39;8.30;99.90
48376;DHT22;34178;50.904;11.560;2022-09-30T18:49:06;8.30;99.90
48376;DHT22;34178;50.904;11.560;2022-09-30T18:51:32;8.20;99.90
48376;DHT22;34178;50.904;11.560;2022-09-30T18:53:59;8.20;99.90
48376;DHT22;34178;50.904;11.560;2022-09-30T18:56:28;8.10;99.90
48376;DHT22;34178;50.904;11.560;2022-09-30T18:58:56;8.10;99.90
48376;DHT22;34178;50.904;11.560;2022-09-30T19:01:22;8.00;99.90
48376;DHT22;34178;50.904;11.560;2022-09-30T19:03:48;7.90;99.90
48376;DHT22;34178;50.904;11.560;2022-09-30T19:06:13;7.90;99.90
48376;DHT22;34178;50.904;11.560;2022-09-30T19:08:40;7.80;99.90
48376;DHT22;34178;50.904;11.560;2022-09-30T19:11:08;7.80;99.90
48376;DHT22;34178;50.904;11.560;2022-09-30T19:13:38;7.80;99.90
48376;DHT22;34178;50.904;11.560;2022-09-30T19:16:04;7.80;99.90
48376;DHT22;34178;50.904;11.560;2022-09-30T19:18:30;7.80;99.90
48376;DHT22;34178;50.904;11.560;2022-09-30T19:21:03;7.80;99.90
48376;DHT22;34178;50.904;11.560;2022-09-30T19:23:30;7.70;99.90
48376;DHT22;34178;50.904;11.560;2022-09-30T19:25:56;7.70;99.90